createdAt,value
2023-04-29T00:01:13.522Z,100088.92
2023-04-29T00:03:46.136Z,100086.91
2023-04-29T00:06:28.527Z,100085.40
2023-04-29T00:09:07.623Z,100086.65
2023-04-29T00:11:40.381Z,100086.50
2023-04-29T00:14:24.509Z,100083.05
2023-04-29T00:17:09.421Z,100084.83
2023-04-29T00:19:53.581Z,100090.05
2023-04-29T00:22:38.386Z,100084.58
2023-04-29T00:25:22.714Z,100082.70
2023-04-29T00:28:06.608Z,100073.91
2023-04-29T00:30:40.366Z,100075.30
2023-04-29T00:33:24.167Z,100070.50
2023-04-29T00:35:47.928Z,100075.45
2023-04-29T00:38:31.696Z,100071.48
2023-04-29T00:41:16.156Z,100070.77
2023-04-29T00:43:49.032Z,100066.80
2023-04-29T00:46:33.197Z,100061.95
2023-04-29T00:49:17.345Z,100066.42
2023-04-29T00:51:42.036Z,100059.31
2023-04-29T00:54:26.077Z,100059.33
2023-04-29T00:57:10.205Z,100059.86
2023-04-29T00:59:54.650Z,100053.15
2023-04-29T01:02:19.677Z,100054.91
2023-04-29T01:05:03.882Z,100057.71
2023-04-29T01:07:58.747Z,100052.74
2023-04-29T01:10:40.140Z,100061.42
2023-04-29T01:13:12.482Z,100049.87
2023-04-29T01:16:01.674Z,100057.65
2023-04-29T01:18:33.329Z,100059.04
2023-04-29T01:21:17.645Z,100060.95
2023-04-29T01:23:55.714Z,100058.36
2023-04-29T01:26:41.203Z,100056.47
2023-04-29T01:29:35.110Z,100053.20
2023-04-29T01:32:26.692Z,100051.70
2023-04-29T01:34:56.698Z,100049.29
2023-04-29T01:37:49.391Z,100052.94
2023-04-29T01:40:37.685Z,100053.81
2023-04-29T01:43:25.149Z,100061.43
2023-04-29T01:46:10.428Z,100052.83
2023-04-29T01:48:54.866Z,100054.77
2023-04-29T01:51:38.826Z,100054.48
2023-04-29T01:54:23.112Z,100053.98
2023-04-29T01:56:59.990Z,100052.98
2023-04-29T01:59:53.030Z,100048.88
2023-04-29T02:02:37.472Z,100052.02
2023-04-29T02:05:21.514Z,100053.59
2023-04-29T02:07:50.203Z,100054.14
2023-04-29T02:10:34.434Z,100049.65
2023-04-29T02:13:18.127Z,100051.40
2023-04-29T02:15:52.139Z,100045.04
2023-04-29T02:18:25.018Z,100049.03
2023-04-29T02:21:08.817Z,100043.86
2023-04-29T02:23:53.902Z,100044.23
2023-04-29T02:26:38.483Z,100033.04
2023-04-29T02:29:22.239Z,100039.62
2023-04-29T02:31:58.937Z,100032.71
2023-04-29T02:34:25.340Z,100032.89
2023-04-29T02:36:51.693Z,100027.71
2023-04-29T02:39:20.156Z,100025.83
2023-04-29T02:42:03.995Z,100031.55
2023-04-29T02:44:48.032Z,100030.52
2023-04-29T02:47:15.014Z,100030.04
2023-04-29T02:49:50.530Z,100031.09
2023-04-29T02:52:28.239Z,100026.97
2023-04-29T02:55:12.441Z,100020.42
2023-04-29T02:57:46.088Z,100023.91
2023-04-29T03:00:19.978Z,100020.64
2023-04-29T03:02:56.982Z,100024.80
2023-04-29T03:05:29.918Z,100025.16
2023-04-29T03:08:13.603Z,100017.55
2023-04-29T03:10:58.320Z,100021.69
2023-04-29T03:13:42.103Z,100022.73
2023-04-29T03:16:13.932Z,100025.66
2023-04-29T03:18:57.853Z,100018.42
2023-04-29T03:21:25.821Z,100025.66
2023-04-29T03:24:09.508Z,100027.41
2023-04-29T03:26:54.320Z,100019.63
2023-04-29T03:29:17.964Z,100016.67
2023-04-29T03:32:03.326Z,100019.41
2023-04-29T03:34:45.463Z,100015.95
2023-04-29T03:37:31.759Z,100011.79
2023-04-29T03:40:15.695Z,100014.69
2023-04-29T03:43:00.599Z,100010.70
2023-04-29T03:45:44.296Z,100022.23
2023-04-29T03:48:11.856Z,100022.55
2023-04-29T03:50:36.834Z,100018.55
2023-04-29T03:53:03.972Z,100023.67
2023-04-29T03:55:48.331Z,100019.98
2023-04-29T03:58:32.474Z,100020.46
2023-04-29T04:01:16.599Z,100020.27
2023-04-29T04:03:43.503Z,100020.73
2023-04-29T04:06:16.495Z,100017.58
2023-04-29T04:09:00.410Z,100014.95
2023-04-29T04:11:44.340Z,100016.44
2023-04-29T04:14:29.213Z,100015.19
2023-04-29T04:17:12.841Z,100013.02
2023-04-29T04:19:57.070Z,100010.03
2023-04-29T04:22:41.035Z,100009.77
2023-04-29T04:25:25.302Z,100007.05
2023-04-29T04:27:57.020Z,100010.94
2023-04-29T04:30:41.111Z,100005.97
2023-04-29T04:33:25.453Z,100008.08
2023-04-29T04:35:58.454Z,100005.96
2023-04-29T04:38:34.854Z,100004.54
2023-04-29T04:41:18.691Z,100005.78
2023-04-29T04:43:54.278Z,100003.52
2023-04-29T04:46:41.985Z,99999.56
2023-04-29T04:49:25.671Z,99998.14
2023-04-29T04:52:09.303Z,99986.34
2023-04-29T04:54:53.043Z,99988.75
2023-04-29T04:57:37.404Z,99986.60
2023-04-29T05:00:21.546Z,99984.07
2023-04-29T05:02:59.261Z,99986.95
2023-04-29T05:05:43.338Z,99988.38
2023-04-29T05:08:07.090Z,99990.64
2023-04-29T05:10:37.817Z,99993.08
2023-04-29T05:13:22.050Z,99984.13
2023-04-29T05:16:07.032Z,99995.67
2023-04-29T05:18:40.726Z,99989.07
2023-04-29T05:21:04.904Z,99991.42
2023-04-29T05:23:37.833Z,99986.80
2023-04-29T05:26:22.000Z,99997.43
2023-04-29T05:29:06.220Z,99985.32
2023-04-29T05:31:51.052Z,99978.68
2023-04-29T05:34:15.645Z,99986.70
2023-04-29T05:36:42.280Z,99974.90
2023-04-29T05:39:06.182Z,99973.80
2023-04-29T05:41:29.796Z,99972.20
2023-04-29T05:44:06.748Z,99965.64
2023-04-29T05:46:30.451Z,99962.98
2023-04-29T05:48:54.270Z,99960.83
2023-04-29T05:51:18.527Z,99956.35
2023-04-29T05:53:42.196Z,99956.20
2023-04-29T05:56:07.912Z,99959.88
2023-04-29T05:58:31.783Z,99966.23
2023-04-29T06:00:55.458Z,99948.66
2023-04-29T06:03:19.038Z,99950.70
2023-04-29T06:05:42.978Z,99958.95
2023-04-29T06:08:13.237Z,99954.34
2023-04-29T06:10:41.527Z,99948.02
2023-04-29T06:13:06.430Z,99947.01
2023-04-29T06:15:30.056Z,99942.31
2023-04-29T06:17:53.871Z,99943.30
2023-04-29T06:20:18.340Z,99952.98
2023-04-29T06:22:41.909Z,99943.13
2023-04-29T06:25:07.703Z,99946.60
2023-04-29T06:27:42.312Z,99951.45
2023-04-29T06:30:08.668Z,99948.64
2023-04-29T06:32:32.241Z,99952.27
2023-04-29T06:34:56.223Z,99959.85
2023-04-29T06:37:28.639Z,99953.27
2023-04-29T06:40:27.737Z,99942.98
2023-04-29T06:43:11.417Z,99948.55
2023-04-29T06:46:01.331Z,99932.24
2023-04-29T06:48:31.263Z,99929.41
2023-04-29T06:50:56.272Z,99939.02
2023-04-29T06:53:20.597Z,99936.77
2023-04-29T06:55:45.740Z,99935.91
2023-04-29T06:58:09.204Z,99930.81
2023-04-29T07:00:33.188Z,99925.34
2023-04-29T07:02:56.692Z,99935.14
2023-04-29T07:05:20.202Z,99945.21
2023-04-29T07:07:43.848Z,99937.81
2023-04-29T07:10:08.543Z,99936.15
2023-04-29T07:12:31.997Z,99934.58
2023-04-29T07:14:55.423Z,99928.64
2023-04-29T07:17:18.987Z,99930.91
2023-04-29T07:19:43.880Z,99924.14
2023-04-29T07:22:08.097Z,99923.98
2023-04-29T07:24:31.606Z,99928.66
2023-04-29T07:26:55.061Z,99924.25
2023-04-29T07:29:18.827Z,99924.45
2023-04-29T07:31:42.215Z,99931.61
2023-04-29T07:34:05.794Z,99924.39
2023-04-29T07:36:29.492Z,99922.77
2023-04-29T07:38:52.962Z,99926.71
2023-04-29T07:41:16.878Z,99915.34
2023-04-29T07:43:42.197Z,99913.41
2023-04-29T07:46:06.300Z,99914.98
2023-04-29T07:48:29.905Z,99919.42
2023-04-29T07:50:54.087Z,99906.95
2023-04-29T07:53:17.919Z,99914.39
2023-04-29T07:55:41.379Z,99913.23
2023-04-29T07:58:05.666Z,99914.91
2023-04-29T08:00:29.252Z,99917.27
2023-04-29T08:02:53.334Z,99915.06
2023-04-29T08:05:18.993Z,99919.90
2023-04-29T08:07:43.441Z,99914.88
2023-04-29T08:10:09.253Z,99925.48
2023-04-29T08:12:34.411Z,99923.11
2023-04-29T08:14:57.774Z,99918.18
2023-04-29T08:17:21.224Z,99923.11
2023-04-29T08:19:45.262Z,99921.54
2023-04-29T08:22:10.567Z,99923.50
2023-04-29T08:24:34.642Z,99921.61
2023-04-29T08:26:58.721Z,99920.30
2023-04-29T08:29:22.186Z,99921.55
2023-04-29T08:31:46.297Z,99917.69
2023-04-29T08:34:10.187Z,99920.50
2023-04-29T08:36:34.009Z,99928.98
2023-04-29T08:38:57.410Z,99936.18
2023-04-29T08:41:21.686Z,99938.23
2023-04-29T08:43:45.127Z,99934.68
2023-04-29T08:46:09.665Z,99930.20
2023-04-29T08:48:34.134Z,99927.81
2023-04-29T08:50:58.864Z,99915.57
2023-04-29T08:53:22.463Z,99923.92
2023-04-29T08:55:47.455Z,99909.91
2023-04-29T08:58:11.868Z,99899.65
2023-04-29T09:00:36.842Z,99907.30
2023-04-29T09:03:04.714Z,99899.29
2023-04-29T09:05:29.784Z,99901.39
2023-04-29T09:07:53.474Z,99902.23
2023-04-29T09:10:18.119Z,99905.95
2023-04-29T09:12:41.441Z,99899.61
2023-04-29T09:15:06.293Z,99905.55
2023-04-29T09:17:44.048Z,99912.41
2023-04-29T09:20:27.055Z,99907.45
2023-04-29T09:22:52.074Z,99904.41
2023-04-29T09:25:16.142Z,99919.45
2023-04-29T09:27:39.498Z,99922.60
2023-04-29T09:30:03.474Z,99913.21
2023-04-29T09:32:26.937Z,99927.08
2023-04-29T09:34:50.728Z,99912.11
2023-04-29T09:37:27.062Z,99921.86
2023-04-29T09:39:50.540Z,99927.36
2023-04-29T09:42:14.380Z,99922.08
2023-04-29T09:44:42.218Z,99902.73
2023-04-29T09:47:07.385Z,99895.16
2023-04-29T09:49:32.985Z,99902.92
2023-04-29T09:51:58.444Z,99892.27
2023-04-29T09:54:23.124Z,99890.60
2023-04-29T09:56:51.187Z,99887.77
2023-04-29T09:59:14.674Z,99891.85
2023-04-29T10:01:38.318Z,99887.80
2023-04-29T10:04:03.448Z,99876.65
2023-04-29T10:06:28.527Z,99873.37
2023-04-29T10:08:52.333Z,99877.20
2023-04-29T10:11:17.363Z,99865.38
2023-04-29T10:13:43.710Z,99877.29
2023-04-29T10:16:15.360Z,99867.88
2023-04-29T10:18:45.052Z,99860.77
2023-04-29T10:21:09.036Z,99862.95
2023-04-29T10:23:34.052Z,99856.29
2023-04-29T10:26:00.577Z,99855.23
2023-04-29T10:28:25.982Z,99851.60
2023-04-29T10:30:51.558Z,99854.02
2023-04-29T10:33:17.533Z,99859.05
2023-04-29T10:35:44.507Z,99852.50
2023-04-29T10:38:17.212Z,99845.39
2023-04-29T10:40:46.394Z,99853.21
2023-04-29T10:43:10.028Z,99848.02
2023-04-29T10:45:35.657Z,99846.84
2023-04-29T10:48:13.538Z,99859.04
2023-04-29T10:51:01.430Z,99854.37
2023-04-29T10:53:25.182Z,99847.71
2023-04-29T10:55:53.290Z,99851.55
2023-04-29T10:58:42.100Z,99862.81
2023-04-29T11:01:07.625Z,99866.49
2023-04-29T11:03:54.391Z,99854.91
2023-04-29T11:06:17.975Z,99839.52
2023-04-29T11:08:42.759Z,99851.60
2023-04-29T11:11:17.244Z,99839.71
2023-04-29T11:13:41.107Z,99837.52
2023-04-29T11:16:06.256Z,99843.16
2023-04-29T11:18:34.153Z,99836.77
2023-04-29T11:21:13.890Z,99832.33
2023-04-29T11:23:41.233Z,99842.23
2023-04-29T11:26:05.022Z,99837.98
2023-04-29T11:28:30.137Z,99838.98
2023-04-29T11:30:54.070Z,99847.27
2023-04-29T11:33:21.191Z,99833.09
2023-04-29T11:35:44.834Z,99827.41
2023-04-29T11:38:09.901Z,99822.00
2023-04-29T11:40:33.991Z,99832.29
2023-04-29T11:42:57.528Z,99828.80
2023-04-29T11:45:20.925Z,99816.62
2023-04-29T11:47:46.004Z,99826.43
2023-04-29T11:50:10.634Z,99812.77
2023-04-29T11:52:36.924Z,99810.07
2023-04-29T11:55:00.793Z,99811.73
2023-04-29T11:57:24.454Z,99809.10
2023-04-29T11:59:48.018Z,99804.96
2023-04-29T12:02:14.229Z,99802.00
2023-04-29T12:04:45.250Z,99804.59
2023-04-29T12:07:11.317Z,99803.02
2023-04-29T12:09:44.054Z,99802.14
2023-04-29T12:12:08.204Z,99796.71
2023-04-29T12:14:41.470Z,99793.98
2023-04-29T12:17:06.264Z,99794.35
2023-04-29T12:19:30.020Z,99787.41
2023-04-29T12:21:54.012Z,99794.00
2023-04-29T12:24:17.342Z,99801.14
2023-04-29T12:26:41.863Z,99793.41
2023-04-29T12:29:05.732Z,99794.13
2023-04-29T12:31:35.859Z,99787.54
2023-04-29T12:33:59.240Z,99782.96
2023-04-29T12:36:29.447Z,99780.81
2023-04-29T12:38:55.253Z,99793.89
2023-04-29T12:41:20.572Z,99799.81
2023-04-29T12:43:44.440Z,99782.59
2023-04-29T12:46:09.367Z,99788.39
2023-04-29T12:48:53.972Z,99774.64
2023-04-29T12:51:17.443Z,99770.13
2023-04-29T12:53:40.912Z,99768.95
2023-04-29T12:56:06.218Z,99769.77
2023-04-29T12:58:31.195Z,99784.93
2023-04-29T13:00:55.152Z,99789.48
2023-04-29T13:03:22.681Z,99784.78
2023-04-29T13:05:52.168Z,99776.28
2023-04-29T13:08:15.943Z,99761.59
2023-04-29T13:10:39.502Z,99754.94
2023-04-29T13:13:08.946Z,99761.55
2023-04-29T13:15:33.698Z,99763.92
2023-04-29T13:17:58.144Z,99760.90
2023-04-29T13:20:23.999Z,99757.76
2023-04-29T13:22:47.780Z,99754.25
2023-04-29T13:25:12.187Z,99758.58
2023-04-29T13:27:35.693Z,99752.17
2023-04-29T13:29:59.433Z,99748.41
2023-04-29T13:32:24.706Z,99752.54
2023-04-29T13:34:48.373Z,99746.35
2023-04-29T13:37:14.438Z,99745.36
2023-04-29T13:39:38.620Z,99743.41
2023-04-29T13:42:03.312Z,99749.82
2023-04-29T13:44:48.628Z,99743.16
2023-04-29T13:47:18.146Z,99749.68
2023-04-29T13:53:18.556Z,99759.06
2023-04-29T13:55:39.500Z,99740.49
2023-04-29T14:00:55.088Z,99740.89
2023-04-29T14:03:09.301Z,99741.02
2023-04-29T14:05:33.168Z,99737.81
2023-04-29T14:07:57.067Z,99740.66
2023-04-29T14:10:23.027Z,99737.94
2023-04-29T14:12:46.656Z,99735.87
2023-04-29T14:15:11.903Z,99737.83
2023-04-29T14:17:44.807Z,99734.99
2023-04-29T14:20:26.386Z,99735.48
2023-04-29T14:22:50.253Z,99731.89
2023-04-29T14:25:14.024Z,99731.69
2023-04-29T14:27:37.662Z,99731.54
2023-04-29T14:30:01.670Z,99738.71
2023-04-29T14:32:25.078Z,99730.10
2023-04-29T14:34:56.165Z,99734.90
2023-04-29T14:37:20.078Z,99730.95
2023-04-29T14:39:43.922Z,99731.37
2023-04-29T14:42:07.302Z,99730.71
2023-04-29T14:44:30.938Z,99728.86
2023-04-29T14:46:54.537Z,99728.11
2023-04-29T14:49:18.223Z,99723.71
2023-04-29T14:51:42.155Z,99724.38
2023-04-29T14:54:05.725Z,99723.17
2023-04-29T14:56:29.430Z,99715.10
2023-04-29T14:58:56.217Z,99719.54
2023-04-29T15:01:19.839Z,99718.55
2023-04-29T15:03:44.799Z,99729.90
2023-04-29T15:06:09.434Z,99723.52
2023-04-29T15:08:32.981Z,99721.57
2023-04-29T15:10:59.485Z,99723.40
2023-04-29T15:13:23.363Z,99729.20
2023-04-29T15:15:46.765Z,99732.20
2023-04-29T15:18:10.444Z,99723.33
2023-04-29T15:20:34.378Z,99719.63
2023-04-29T15:22:57.872Z,99720.46
2023-04-29T15:25:22.073Z,99719.10
2023-04-29T15:27:47.228Z,99727.43
2023-04-29T15:30:11.275Z,99723.80
2023-04-29T15:32:33.913Z,99725.45
2023-04-29T15:34:57.033Z,99730.73
2023-04-29T15:37:30.118Z,99727.14
2023-04-29T15:39:52.898Z,99724.97
2023-04-29T15:42:24.792Z,99732.43
2023-04-29T15:44:47.357Z,99726.73
2023-04-29T15:47:10.298Z,99719.98
2023-04-29T15:49:33.028Z,99720.61
2023-04-29T15:51:55.789Z,99719.89
2023-04-29T15:54:18.386Z,99717.34
2023-04-29T15:57:03.124Z,99718.56
2023-04-29T15:59:39.261Z,99708.85
2023-04-29T16:02:02.609Z,99711.05
2023-04-29T16:04:26.150Z,99712.03
2023-04-29T16:06:49.027Z,99708.05
2023-04-29T16:09:11.770Z,99714.87
2023-04-29T16:11:44.230Z,99712.91
2023-04-29T16:14:06.812Z,99711.95
2023-04-29T16:16:30.168Z,99715.35
2023-04-29T16:19:00.847Z,99719.34
2023-04-29T16:21:23.534Z,99716.73
2023-04-29T16:23:46.484Z,99719.69
2023-04-29T16:26:09.335Z,99719.19
2023-04-29T16:28:31.885Z,99718.52
2023-04-29T16:30:54.433Z,99716.48
2023-04-29T16:33:24.988Z,99716.64
2023-04-29T16:35:57.622Z,99715.59
2023-04-29T16:38:20.340Z,99722.05
2023-04-29T16:40:43.342Z,99723.31
2023-04-29T16:43:05.803Z,99728.11
2023-04-29T16:45:31.221Z,99731.29
2023-04-29T16:47:54.374Z,99733.96
2023-04-29T16:50:17.218Z,99738.89
2023-04-29T16:52:39.746Z,99739.34
2023-04-29T16:55:03.083Z,99735.02
2023-04-29T16:57:25.884Z,99740.02
2023-04-29T16:59:48.551Z,99741.52
2023-04-29T17:02:12.016Z,99739.37
2023-04-29T17:04:34.840Z,99742.35
2023-04-29T17:06:58.063Z,99746.13
2023-04-29T17:09:23.365Z,99746.45
2023-04-29T17:11:45.898Z,99751.86
2023-04-29T17:14:08.653Z,99751.10
2023-04-29T17:16:32.368Z,99756.64
2023-04-29T17:18:57.824Z,99754.61
2023-04-29T17:21:22.566Z,99754.75
2023-04-29T17:23:45.192Z,99754.96
2023-04-29T17:26:07.821Z,99753.52
2023-04-29T17:28:30.504Z,99755.66
2023-04-29T17:30:59.619Z,99753.74
2023-04-29T17:33:35.383Z,99751.96
2023-04-29T17:36:18.402Z,99751.88
2023-04-29T17:38:41.386Z,99755.05
2023-04-29T17:41:04.046Z,99755.30
2023-04-29T17:43:27.118Z,99761.19
2023-04-29T17:45:49.755Z,99761.34
2023-04-29T17:48:14.174Z,99761.39
2023-04-29T17:50:38.072Z,99759.41
2023-04-29T17:53:00.636Z,99760.75
2023-04-29T17:55:23.578Z,99760.10
2023-04-29T17:57:58.028Z,99761.77
2023-04-29T18:00:41.098Z,99765.74
2023-04-29T18:03:05.066Z,99763.17
2023-04-29T18:05:28.251Z,99765.98
2023-04-29T18:07:50.843Z,99767.93
2023-04-29T18:10:22.426Z,99764.71
2023-04-29T18:12:45.449Z,99772.46
2023-04-29T18:15:09.581Z,99776.34
2023-04-29T18:17:33.124Z,99775.34
2023-04-29T18:19:55.877Z,99776.02
2023-04-29T18:22:18.668Z,99778.20
2023-04-29T18:24:41.427Z,99784.11
2023-04-29T18:27:04.085Z,99778.66
2023-04-29T18:29:29.334Z,99785.16
2023-04-29T18:31:54.235Z,99781.67
2023-04-29T18:34:16.982Z,99783.80
2023-04-29T18:36:39.458Z,99786.39
2023-04-29T18:39:02.112Z,99787.73
2023-04-29T18:41:24.974Z,99788.49
2023-04-29T18:43:47.472Z,99793.61
2023-04-29T18:46:10.190Z,99790.68
2023-04-29T18:48:33.715Z,99793.17
2023-04-29T18:51:09.373Z,99792.29
2023-04-29T18:53:32.225Z,99797.15
2023-04-29T18:55:55.158Z,99798.55
2023-04-29T18:58:27.426Z,99799.11
2023-04-29T19:00:50.363Z,99800.52
2023-04-29T19:03:12.994Z,99802.46
2023-04-29T19:05:35.500Z,99805.36
2023-04-29T19:08:06.282Z,99806.02
2023-04-29T19:10:29.105Z,99802.52
2023-04-29T19:13:12.231Z,99803.74
2023-04-29T19:15:34.986Z,99805.42
2023-04-29T19:17:57.691Z,99811.77
2023-04-29T19:20:20.739Z,99808.91
2023-04-29T19:22:43.486Z,99814.05
2023-04-29T19:25:07.286Z,99813.73
2023-04-29T19:27:30.102Z,99810.77
2023-04-29T19:29:52.911Z,99810.48
2023-04-29T19:32:15.840Z,99811.42
2023-04-29T19:34:38.336Z,99810.98
2023-04-29T19:37:01.017Z,99810.91
2023-04-29T19:39:23.645Z,99811.87
2023-04-29T19:41:46.194Z,99814.51
2023-04-29T19:44:09.064Z,99815.89
2023-04-29T19:46:31.882Z,99816.26
2023-04-29T19:49:04.104Z,99817.67
2023-04-29T19:51:30.352Z,99819.33
2023-04-29T19:54:13.512Z,99817.98
2023-04-29T19:56:39.682Z,99817.86
2023-04-29T19:59:02.425Z,99816.61
2023-04-29T20:01:25.277Z,99820.06
2023-04-29T20:03:49.037Z,99817.13
2023-04-29T20:06:34.310Z,99818.34
2023-04-29T20:09:08.840Z,99815.70
2023-04-29T20:11:31.597Z,99819.30
2023-04-29T20:14:03.200Z,99814.03
2023-04-29T20:16:29.349Z,99812.77
2023-04-29T20:18:51.884Z,99812.38
2023-04-29T20:21:24.812Z,99808.86
2023-04-29T20:24:00.647Z,99812.13
2023-04-29T20:26:23.178Z,99809.52
2023-04-29T20:28:54.658Z,99803.86
2023-04-29T20:31:32.668Z,99804.92
2023-04-29T20:33:55.284Z,99805.46
2023-04-29T20:36:18.340Z,99805.89
2023-04-29T20:38:41.844Z,99807.05
2023-04-29T20:41:13.299Z,99806.48
2023-04-29T20:43:49.072Z,99805.88
2023-04-29T20:46:26.145Z,99803.77
2023-04-29T20:48:57.179Z,99805.98
2023-04-29T20:51:40.276Z,99806.74
2023-04-29T20:54:13.381Z,99807.46
2023-04-29T20:56:38.775Z,99803.95
2023-04-29T20:59:02.344Z,99809.30
2023-04-29T21:01:25.272Z,99808.07
2023-04-29T21:03:48.047Z,99807.36
2023-04-29T21:06:31.627Z,99811.70
2023-04-29T21:09:05.627Z,99811.02
2023-04-29T21:11:28.306Z,99814.34
2023-04-29T21:13:51.448Z,99817.14
2023-04-29T21:16:17.455Z,99818.65
2023-04-29T21:19:00.810Z,99817.70
2023-04-29T21:21:32.496Z,99816.73
2023-04-29T21:23:58.365Z,99817.48
2023-04-29T21:26:28.839Z,99814.27
2023-04-29T21:28:51.588Z,99820.64
2023-04-29T21:31:15.743Z,99818.10
2023-04-29T21:33:39.389Z,99817.54
2023-04-29T21:36:01.898Z,99815.05
2023-04-29T21:38:24.446Z,99813.88
2023-04-29T21:41:09.526Z,99812.99
2023-04-29T21:43:32.818Z,99809.86
2023-04-29T21:45:55.715Z,99813.16
2023-04-29T21:48:20.130Z,99812.47
2023-04-29T21:50:45.399Z,99814.21
2023-04-29T21:53:27.194Z,99814.77
2023-04-29T21:55:59.031Z,99813.16
2023-04-29T21:58:21.666Z,99814.70
2023-04-29T22:00:59.813Z,99813.80
2023-04-29T22:03:28.211Z,99816.33
2023-04-29T22:06:11.272Z,99816.38
2023-04-29T22:08:36.218Z,99815.89
2023-04-29T22:11:01.551Z,99818.77
2023-04-29T22:13:35.731Z,99815.44
2023-04-29T22:16:01.274Z,99814.98
2023-04-29T22:18:26.740Z,99816.28
2023-04-29T22:20:59.575Z,99819.29
2023-04-29T22:23:24.702Z,99822.61
2023-04-29T22:25:54.476Z,99819.77
2023-04-29T22:28:35.011Z,99821.10
2023-04-29T22:30:59.888Z,99819.99
2023-04-29T22:33:24.675Z,99819.16
2023-04-29T22:36:07.889Z,99819.75
2023-04-29T22:38:50.707Z,99825.28
2023-04-29T22:41:34.137Z,99823.48
2023-04-29T22:44:17.248Z,99826.87
2023-04-29T22:46:40.157Z,99824.16
2023-04-29T22:49:02.749Z,99827.02
2023-04-29T22:51:46.062Z,99822.58
2023-04-29T22:54:11.207Z,99824.64
2023-04-29T22:56:33.923Z,99827.10
2023-04-29T22:58:56.719Z,99828.90
2023-04-29T23:01:19.368Z,99826.50
2023-04-29T23:03:44.158Z,99827.90
2023-04-29T23:06:09.958Z,99827.41
2023-04-29T23:08:32.618Z,99828.89
2023-04-29T23:10:55.358Z,99824.59
2023-04-29T23:13:21.181Z,99821.48
2023-04-29T23:16:04.729Z,99823.70
2023-04-29T23:18:37.175Z,99821.36
2023-04-29T23:20:59.961Z,99819.58
2023-04-29T23:23:42.778Z,99817.74
2023-04-29T23:26:05.386Z,99816.00
2023-04-29T23:28:31.040Z,99814.63
2023-04-29T23:30:56.761Z,99815.94
2023-04-29T23:33:39.649Z,99814.19
2023-04-29T23:36:13.261Z,99811.31
2023-04-29T23:38:45.023Z,99808.58
2023-04-29T23:41:07.718Z,99808.94
2023-04-29T23:43:33.017Z,99807.21
2023-04-29T23:45:55.735Z,99804.80
2023-04-29T23:48:18.807Z,99805.14
2023-04-29T23:51:01.710Z,99804.34
2023-04-29T23:53:44.502Z,99809.93
2023-04-29T23:56:16.109Z,99811.27
2023-04-29T23:58:59.019Z,99809.11
